createdAt,value
2019-02-27T00:02:30.236Z,99.90
2019-02-27T00:05:00.313Z,99.90
2019-02-27T00:07:30.275Z,99.90
2019-02-27T00:10:00.486Z,99.90
2019-02-27T00:12:30.397Z,99.90
2019-02-27T00:15:02.207Z,99.90
2019-02-27T00:17:32.296Z,99.90
2019-02-27T00:20:05.087Z,99.90
2019-02-27T00:22:34.380Z,99.90
2019-02-27T00:25:04.800Z,99.90
2019-02-27T00:27:34.791Z,99.90
2019-02-27T00:30:06.915Z,99.90
2019-02-27T00:32:36.984Z,99.90
2019-02-27T00:35:07.525Z,99.90
2019-02-27T00:37:37.985Z,99.90
2019-02-27T00:40:08.732Z,99.90
2019-02-27T00:42:38.726Z,99.90
2019-02-27T00:45:12.055Z,99.90
2019-02-27T00:47:42.261Z,99.90
2019-02-27T00:50:12.231Z,99.90
2019-02-27T00:52:42.776Z,99.90
2019-02-27T00:55:13.082Z,99.90
2019-02-27T00:57:43.188Z,99.90
2019-02-27T01:00:19.000Z,99.90
2019-02-27T01:02:52.639Z,99.90
2019-02-27T01:05:21.075Z,99.90
2019-02-27T01:07:53.793Z,99.90
2019-02-27T01:10:23.379Z,99.90
2019-02-27T01:12:57.670Z,99.90
2019-02-27T01:15:25.764Z,99.90
2019-02-27T01:17:57.451Z,99.90
2019-02-27T01:20:27.750Z,99.90
2019-02-27T01:22:57.666Z,99.90
2019-02-27T01:25:28.488Z,99.90
2019-02-27T01:27:58.646Z,99.90
2019-02-27T01:30:28.979Z,99.90
2019-02-27T01:33:03.990Z,99.90
2019-02-27T01:35:31.061Z,99.90
2019-02-27T01:38:05.075Z,99.90
2019-02-27T01:40:32.755Z,99.90
2019-02-27T01:43:05.478Z,99.90
2019-02-27T01:45:34.461Z,99.90
2019-02-27T01:48:08.934Z,99.90
2019-02-27T01:50:37.648Z,99.90
2019-02-27T01:53:08.185Z,99.90
2019-02-27T01:55:38.823Z,99.90
2019-02-27T01:58:09.555Z,99.90
2019-02-27T02:00:40.719Z,99.90
2019-02-27T02:03:11.185Z,99.90
2019-02-27T02:05:42.699Z,99.90
2019-02-27T02:08:13.958Z,99.90
2019-02-27T02:10:44.300Z,99.90
2019-02-27T02:13:18.737Z,99.90
2019-02-27T02:16:02.029Z,99.90
2019-02-27T02:18:39.040Z,99.90
2019-02-27T02:21:32.050Z,99.90
2019-02-27T02:24:29.954Z,99.90
2019-02-27T02:27:16.285Z,99.90
2019-02-27T02:30:02.517Z,99.90
2019-02-27T02:32:52.014Z,99.90
2019-02-27T02:35:51.135Z,99.90
2019-02-27T02:39:01.221Z,99.90
2019-02-27T02:41:52.272Z,99.90
2019-02-27T02:44:41.846Z,99.90
2019-02-27T02:47:30.830Z,99.90
2019-02-27T02:50:38.490Z,99.90
2019-02-27T02:54:00.690Z,99.90
2019-02-27T02:56:38.574Z,99.90
2019-02-27T02:59:47.555Z,99.90
2019-02-27T03:02:40.038Z,99.90
2019-02-27T03:05:43.967Z,99.90
2019-02-27T03:08:42.385Z,99.90
2019-02-27T03:11:54.761Z,99.90
2019-02-27T03:14:35.793Z,99.90
2019-02-27T03:17:37.551Z,99.90
2019-02-27T03:20:26.831Z,99.90
2019-02-27T03:23:32.430Z,99.90
2019-02-27T03:26:09.620Z,99.90
2019-02-27T03:28:59.191Z,99.90
2019-02-27T03:32:03.424Z,99.90
2019-02-27T03:35:15.007Z,99.90
2019-02-27T03:38:04.186Z,99.90
2019-02-27T03:41:04.088Z,99.90
2019-02-27T03:44:06.933Z,99.90
2019-02-27T03:46:47.162Z,99.90
2019-02-27T03:49:40.866Z,99.90
2019-02-27T03:52:43.949Z,99.90
2019-02-27T03:55:34.564Z,99.90
2019-02-27T03:58:36.629Z,99.90
2019-02-27T04:01:39.664Z,99.90
2019-02-27T04:04:30.564Z,99.90
2019-02-27T04:07:31.899Z,99.90
2019-02-27T04:10:02.294Z,99.90
2019-02-27T04:12:32.138Z,99.90
2019-02-27T04:15:02.227Z,99.90
2019-02-27T04:17:30.364Z,99.90
2019-02-27T04:20:00.320Z,99.90
2019-02-27T04:22:30.286Z,99.90
2019-02-27T04:25:00.596Z,99.90
2019-02-27T04:27:30.505Z,99.90
2019-02-27T04:30:00.521Z,99.90
2019-02-27T04:32:30.430Z,99.90
2019-02-27T04:35:00.638Z,99.90
2019-02-27T04:37:30.554Z,99.90
2019-02-27T04:40:00.564Z,99.90
2019-02-27T04:42:30.481Z,99.90
2019-02-27T04:45:00.393Z,99.90
2019-02-27T04:47:30.405Z,99.90
2019-02-27T04:50:00.317Z,99.90
2019-02-27T04:52:30.524Z,99.90
2019-02-27T04:55:00.439Z,99.90
2019-02-27T04:57:33.397Z,99.90
2019-02-27T05:00:02.250Z,99.90
2019-02-27T05:02:32.149Z,99.90
2019-02-27T05:05:02.062Z,99.90
2019-02-27T05:07:31.971Z,99.90
2019-02-27T05:10:01.885Z,99.90
2019-02-27T05:12:31.851Z,99.90
2019-02-27T05:15:04.059Z,99.90
2019-02-27T05:17:33.550Z,99.90
2019-02-27T05:20:04.391Z,99.90
2019-02-27T05:22:34.506Z,99.90
2019-02-27T05:25:04.906Z,99.90
2019-02-27T05:27:34.821Z,99.90
2019-02-27T05:30:06.919Z,99.90
2019-02-27T05:32:36.907Z,99.90
2019-02-27T05:35:07.412Z,99.90
2019-02-27T05:37:39.301Z,99.90
2019-02-27T05:40:11.636Z,99.90
2019-02-27T05:42:41.870Z,99.90
2019-02-27T05:45:13.998Z,99.90
2019-02-27T05:47:45.789Z,99.90
2019-02-27T05:50:15.933Z,99.90
2019-02-27T05:52:48.714Z,99.90
2019-02-27T05:55:17.733Z,99.90
2019-02-27T05:57:48.034Z,99.90
2019-02-27T06:00:21.788Z,99.90
2019-02-27T06:02:51.853Z,99.90
2019-02-27T06:05:21.929Z,99.90
2019-02-27T06:07:51.918Z,99.90
2019-02-27T06:10:23.607Z,99.90
2019-02-27T06:12:53.455Z,99.90
2019-02-27T06:15:26.060Z,99.90
2019-02-27T06:17:55.599Z,99.90
2019-02-27T06:20:25.510Z,99.90
2019-02-27T06:22:55.621Z,99.90
2019-02-27T06:25:25.732Z,99.90
2019-02-27T06:27:55.647Z,99.90
2019-02-27T06:30:27.970Z,99.90
2019-02-27T06:32:57.634Z,99.90
2019-02-27T06:35:27.547Z,99.90
2019-02-27T06:37:57.462Z,99.90
2019-02-27T06:40:27.279Z,99.90
2019-02-27T06:42:57.189Z,99.90
2019-02-27T06:45:27.497Z,99.90
2019-02-27T06:47:57.445Z,99.90
2019-02-27T06:50:27.329Z,99.90
2019-02-27T06:52:57.532Z,99.90
2019-02-27T06:55:28.051Z,99.90
2019-02-27T06:57:58.735Z,99.90
2019-02-27T07:00:28.752Z,99.90
2019-02-27T07:02:58.762Z,99.90
2019-02-27T07:05:28.672Z,99.90
2019-02-27T07:07:58.586Z,99.90
2019-02-27T07:10:28.598Z,99.90
2019-02-27T07:12:58.511Z,99.90
2019-02-27T07:15:28.965Z,99.90
2019-02-27T07:17:58.930Z,99.90
2019-02-27T07:20:28.848Z,99.90
2019-02-27T07:22:59.252Z,99.90
2019-02-27T07:25:29.359Z,99.90
2019-02-27T07:27:59.466Z,99.90
2019-02-27T07:30:29.778Z,99.90
2019-02-27T07:32:59.784Z,99.90
2019-02-27T07:35:29.701Z,99.90
2019-02-27T07:37:59.617Z,99.90
2019-02-27T07:40:30.022Z,99.90
2019-02-27T07:42:59.930Z,99.90
2019-02-27T07:45:29.945Z,99.90
2019-02-27T07:47:59.856Z,99.90
2019-02-27T07:50:29.770Z,99.90
2019-02-27T07:52:59.879Z,99.90
2019-02-27T07:55:30.185Z,99.90
2019-02-27T07:58:00.102Z,99.90
2019-02-27T08:00:30.013Z,99.90
2019-02-27T08:03:00.309Z,99.90
2019-02-27T08:05:30.527Z,99.90
2019-02-27T08:08:00.937Z,99.90
2019-02-27T08:10:30.946Z,99.90
2019-02-27T08:13:01.053Z,99.90
2019-02-27T08:15:31.361Z,99.90
2019-02-27T08:18:01.408Z,99.90
2019-02-27T08:20:31.385Z,99.90
2019-02-27T08:23:01.298Z,99.90
2019-02-27T08:25:31.215Z,99.90
2019-02-27T08:28:01.131Z,99.90
2019-02-27T08:30:31.239Z,99.90
2019-02-27T08:33:01.150Z,99.90
2019-02-27T08:35:31.852Z,99.90
2019-02-27T08:38:02.972Z,99.90
2019-02-27T08:40:32.957Z,99.90
2019-02-27T08:43:02.872Z,99.90
2019-02-27T08:45:32.787Z,99.90
2019-02-27T08:48:02.703Z,99.90
2019-02-27T08:50:32.607Z,99.90
2019-02-27T08:53:02.820Z,99.90
2019-02-27T08:55:33.660Z,99.90
2019-02-27T08:58:03.624Z,99.90
2019-02-27T09:00:34.822Z,99.90
2019-02-27T09:03:05.125Z,99.90
2019-02-27T09:05:35.036Z,99.90
2019-02-27T09:08:07.318Z,99.90
2019-02-27T09:10:36.831Z,99.90
2019-02-27T09:13:07.561Z,99.90
2019-02-27T09:15:38.136Z,99.90
2019-02-27T09:18:09.131Z,99.90
2019-02-27T09:20:39.342Z,99.90
2019-02-27T09:23:09.251Z,99.90
2019-02-27T09:25:39.360Z,99.90
2019-02-27T09:28:10.066Z,99.90
2019-02-27T09:30:40.073Z,99.90
2019-02-27T09:33:10.230Z,99.90
2019-02-27T09:35:40.586Z,99.90
2019-02-27T09:38:10.499Z,99.90
2019-02-27T09:40:40.612Z,99.90
2019-02-27T09:43:11.725Z,99.90
2019-02-27T09:45:46.182Z,99.90
2019-02-27T09:48:13.594Z,99.90
2019-02-27T09:50:48.234Z,99.90
2019-02-27T09:53:18.141Z,99.90
2019-02-27T09:55:48.053Z,99.90
2019-02-27T09:58:17.967Z,99.90
2019-02-27T10:00:59.222Z,99.90
2019-02-27T10:03:27.328Z,99.90
2019-02-27T10:05:57.341Z,99.90
2019-02-27T10:08:27.144Z,99.90
2019-02-27T10:10:57.072Z,99.90
2019-02-27T10:13:27.378Z,99.90
2019-02-27T10:16:00.599Z,99.90
2019-02-27T10:18:29.074Z,99.90
2019-02-27T10:20:59.181Z,99.90
2019-02-27T10:23:31.185Z,99.90
2019-02-27T10:26:00.782Z,99.90
2019-02-27T10:28:30.885Z,99.90
2019-02-27T10:31:00.801Z,99.90
2019-02-27T10:33:30.717Z,99.90
2019-02-27T10:36:03.026Z,99.90
2019-02-27T10:38:32.411Z,99.90
2019-02-27T10:41:02.433Z,99.90
2019-02-27T10:43:32.431Z,99.90
2019-02-27T10:46:02.543Z,99.90
2019-02-27T10:48:32.457Z,99.90
2019-02-27T10:51:02.369Z,99.90
2019-02-27T10:53:32.392Z,99.90
2019-02-27T10:56:02.394Z,99.90
2019-02-27T10:58:32.505Z,99.90
2019-02-27T11:01:02.909Z,99.90
2019-02-27T11:03:32.931Z,99.90
2019-02-27T11:06:02.931Z,99.90
2019-02-27T11:08:32.943Z,99.90
2019-02-27T11:11:02.955Z,99.90
2019-02-27T11:13:32.870Z,99.90
2019-02-27T11:16:03.075Z,99.90
2019-02-27T11:18:32.990Z,99.90
2019-02-27T11:21:03.298Z,99.90
2019-02-27T11:23:33.511Z,99.90
2019-02-27T11:26:03.423Z,99.90
2019-02-27T11:28:33.431Z,99.90
2019-02-27T11:31:03.344Z,99.60
2019-02-27T11:33:33.568Z,98.50
2019-02-27T11:36:05.757Z,97.80
2019-02-27T11:38:35.937Z,96.60
2019-02-27T11:41:05.946Z,97.10
2019-02-27T11:43:37.953Z,96.10
2019-02-27T11:46:08.055Z,95.60
2019-02-27T11:48:38.158Z,93.80
2019-02-27T11:51:08.156Z,93.20
2019-02-27T11:53:38.073Z,92.40
2019-02-27T11:56:08.418Z,91.70
2019-02-27T11:58:39.163Z,92.00
2019-02-27T12:01:12.051Z,91.80
2019-02-27T12:03:45.690Z,88.70
2019-02-27T12:06:13.503Z,87.60
2019-02-27T12:08:43.958Z,88.00
2019-02-27T12:11:14.254Z,85.50
2019-02-27T12:13:44.750Z,82.80
2019-02-27T12:16:18.303Z,81.70
2019-02-27T12:18:46.944Z,83.00
2019-02-27T12:21:17.376Z,79.00
2019-02-27T12:23:47.553Z,80.70
2019-02-27T12:26:17.560Z,82.70
2019-02-27T12:28:52.503Z,77.50
2019-02-27T12:31:19.552Z,78.50
2019-02-27T12:33:49.469Z,79.90
2019-02-27T12:36:19.877Z,80.20
2019-02-27T12:38:49.783Z,78.80
2019-02-27T12:41:19.696Z,77.80
2019-02-27T12:43:52.637Z,77.70
2019-02-27T12:46:21.295Z,77.80
2019-02-27T12:48:51.402Z,77.60
2019-02-27T12:51:21.314Z,77.40
2019-02-27T12:53:54.412Z,74.30
2019-02-27T12:56:23.019Z,72.40
2019-02-27T12:58:53.028Z,69.10
2019-02-27T13:01:22.939Z,69.80
2019-02-27T13:03:52.851Z,72.30
2019-02-27T13:06:22.766Z,70.30
2019-02-27T13:08:53.471Z,69.00
2019-02-27T13:11:23.571Z,69.90
2019-02-27T13:13:53.595Z,65.70
2019-02-27T13:16:23.697Z,68.50
2019-02-27T13:18:54.099Z,64.50
2019-02-27T13:21:24.109Z,68.40
2019-02-27T13:23:55.734Z,67.50
2019-02-27T13:26:25.902Z,68.40
2019-02-27T13:28:55.819Z,67.30
2019-02-27T13:31:26.930Z,66.60
2019-02-27T13:33:57.019Z,65.70
2019-02-27T13:36:26.936Z,59.70
2019-02-27T13:38:59.318Z,61.50
2019-02-27T13:41:29.023Z,59.20
2019-02-27T13:44:01.343Z,60.20
2019-02-27T13:46:30.716Z,60.00
2019-02-27T13:49:00.633Z,57.60
2019-02-27T13:51:30.934Z,59.60
2019-02-27T13:54:01.279Z,58.40
2019-02-27T13:56:31.450Z,56.20
2019-02-27T13:59:01.503Z,55.50
2019-02-27T14:01:31.474Z,53.80
2019-02-27T14:04:01.392Z,56.30
2019-02-27T14:06:31.304Z,57.10
2019-02-27T14:09:01.214Z,56.50
2019-02-27T14:11:31.619Z,57.50
2019-02-27T14:14:01.635Z,55.30
2019-02-27T14:16:34.567Z,54.00
2019-02-27T14:19:03.424Z,54.00
2019-02-27T14:21:35.522Z,55.70
2019-02-27T14:24:05.335Z,53.20
2019-02-27T14:26:35.227Z,52.20
2019-02-27T14:29:05.242Z,53.40
2019-02-27T14:31:35.254Z,55.00
2019-02-27T14:34:05.464Z,54.50
2019-02-27T14:36:35.963Z,52.30
2019-02-27T14:39:08.856Z,50.60
2019-02-27T14:41:38.838Z,49.10
2019-02-27T14:44:09.144Z,48.70
2019-02-27T14:46:39.061Z,47.60
2019-02-27T14:49:09.671Z,48.90
2019-02-27T14:51:41.203Z,50.50
2019-02-27T14:54:11.356Z,52.00
2019-02-27T14:56:41.907Z,53.10
2019-02-27T14:59:12.952Z,55.20
2019-02-27T15:01:42.865Z,55.30
2019-02-27T15:04:12.976Z,57.10
2019-02-27T15:06:43.183Z,52.90
2019-02-27T15:09:13.491Z,53.60
2019-02-27T15:11:44.934Z,57.80
2019-02-27T15:14:15.480Z,57.80
2019-02-27T15:16:49.034Z,57.20
2019-02-27T15:19:18.904Z,54.60
2019-02-27T15:21:49.152Z,53.60
2019-02-27T15:24:19.065Z,54.00
2019-02-27T15:26:50.715Z,51.40
2019-02-27T15:29:21.349Z,53.60
2019-02-27T15:31:52.173Z,53.20
2019-02-27T15:34:22.945Z,53.60
2019-02-27T15:36:53.647Z,56.40
2019-02-27T15:39:23.952Z,56.10
2019-02-27T15:41:53.867Z,55.90
2019-02-27T15:44:23.976Z,55.80
2019-02-27T15:46:56.622Z,55.40
2019-02-27T15:49:25.571Z,54.50
2019-02-27T15:51:55.590Z,53.40
2019-02-27T15:54:25.793Z,54.50
2019-02-27T15:56:55.706Z,57.90
2019-02-27T15:59:25.689Z,55.20
2019-02-27T16:01:55.569Z,56.40
2019-02-27T16:04:26.006Z,54.80
2019-02-27T16:06:55.959Z,55.10
2019-02-27T16:09:26.160Z,55.90
2019-02-27T16:11:56.269Z,54.90
2019-02-27T16:14:26.180Z,54.40
2019-02-27T16:16:57.576Z,55.20
2019-02-27T16:19:27.776Z,54.90
2019-02-27T16:21:57.957Z,54.70
2019-02-27T16:24:28.196Z,56.20
2019-02-27T16:27:01.344Z,56.00
2019-02-27T16:29:30.574Z,56.20
2019-02-27T16:32:00.587Z,56.60
2019-02-27T16:34:33.251Z,56.60
2019-02-27T16:37:02.480Z,55.20
2019-02-27T16:39:32.984Z,56.80
2019-02-27T16:42:05.215Z,55.20
2019-02-27T16:44:35.206Z,56.60
2019-02-27T16:47:05.183Z,57.00
2019-02-27T16:49:35.093Z,56.30
2019-02-27T16:52:07.888Z,56.80
2019-02-27T16:54:36.689Z,58.90
2019-02-27T16:57:07.290Z,59.00
2019-02-27T16:59:37.492Z,59.00
2019-02-27T17:02:07.411Z,60.30
2019-02-27T17:04:37.327Z,61.60
2019-02-27T17:07:07.344Z,63.80
2019-02-27T17:09:37.449Z,64.20
2019-02-27T17:12:07.991Z,63.50
2019-02-27T17:14:39.372Z,65.70
2019-02-27T17:17:09.552Z,65.80
2019-02-27T17:19:39.755Z,66.90
2019-02-27T17:22:10.974Z,66.70
2019-02-27T17:24:40.957Z,67.60
2019-02-27T17:27:12.989Z,68.00
2019-02-27T17:29:42.654Z,68.20
2019-02-27T17:32:12.472Z,69.10
2019-02-27T17:34:47.224Z,70.60
2019-02-27T17:37:14.563Z,72.40
2019-02-27T17:39:45.439Z,70.90
2019-02-27T17:42:18.296Z,73.10
2019-02-27T17:44:47.443Z,72.80
2019-02-27T17:47:17.359Z,70.40
2019-02-27T17:49:47.184Z,69.10
2019-02-27T17:52:17.183Z,72.20
2019-02-27T17:54:47.103Z,69.60
2019-02-27T17:57:17.012Z,71.20
2019-02-27T17:59:46.922Z,71.80
2019-02-27T18:02:16.932Z,75.60
2019-02-27T18:04:51.032Z,79.70
2019-02-27T18:07:18.628Z,76.70
2019-02-27T18:09:48.542Z,78.80
2019-02-27T18:12:18.749Z,80.40
2019-02-27T18:14:48.662Z,77.20
2019-02-27T18:17:18.493Z,80.70
2019-02-27T18:19:50.333Z,80.30
2019-02-27T18:22:20.065Z,81.00
2019-02-27T18:24:50.088Z,85.60
2019-02-27T18:27:24.648Z,84.20
2019-02-27T18:29:51.682Z,87.20
2019-02-27T18:32:21.699Z,86.30
2019-02-27T18:34:54.666Z,85.30
2019-02-27T18:37:24.182Z,84.40
2019-02-27T18:39:54.197Z,85.30
2019-02-27T18:42:24.135Z,84.40
2019-02-27T18:44:54.416Z,84.40
2019-02-27T18:47:24.321Z,87.90
2019-02-27T18:49:54.353Z,90.20
2019-02-27T18:52:24.648Z,89.40
2019-02-27T18:54:55.617Z,90.40
2019-02-27T18:57:25.713Z,91.40
2019-02-27T18:59:57.480Z,92.20
2019-02-27T19:02:27.546Z,91.50
2019-02-27T19:04:57.649Z,90.90
2019-02-27T19:07:27.965Z,91.10
2019-02-27T19:09:58.512Z,91.40
2019-02-27T19:12:28.731Z,91.60
2019-02-27T19:14:59.130Z,92.40
2019-02-27T19:17:32.081Z,93.00
2019-02-27T19:20:00.981Z,93.70
2019-02-27T19:22:31.269Z,95.50
2019-02-27T19:25:01.281Z,96.50
2019-02-27T19:27:31.594Z,96.90
2019-02-27T19:30:06.291Z,96.60
2019-02-27T19:32:33.677Z,96.00
2019-02-27T19:35:03.770Z,99.20
2019-02-27T19:37:38.688Z,99.90
2019-02-27T19:40:15.539Z,99.90
2019-02-27T19:43:04.997Z,99.90
2019-02-27T19:45:35.805Z,99.90
2019-02-27T19:48:07.202Z,99.90
2019-02-27T19:50:37.572Z,99.90
2019-02-27T19:53:08.772Z,99.90
2019-02-27T19:55:39.419Z,99.90
2019-02-27T19:58:09.682Z,99.90
2019-02-27T20:00:47.941Z,99.90
2019-02-27T20:03:11.854Z,99.90
2019-02-27T20:05:41.876Z,99.90
2019-02-27T20:08:11.976Z,99.90
2019-02-27T20:10:44.059Z,99.90
2019-02-27T20:13:14.175Z,99.90
2019-02-27T20:15:45.481Z,99.90
2019-02-27T20:18:16.757Z,99.90
2019-02-27T20:20:47.247Z,99.90
2019-02-27T20:23:17.354Z,99.90
2019-02-27T20:25:47.857Z,99.90
2019-02-27T20:28:17.770Z,99.90
2019-02-27T20:30:48.289Z,99.90
2019-02-27T20:33:18.641Z,99.90
2019-02-27T20:35:48.790Z,99.90
2019-02-27T20:38:19.787Z,99.90
2019-02-27T20:40:49.697Z,99.90
2019-02-27T20:43:19.807Z,99.90
2019-02-27T20:45:49.860Z,99.90
2019-02-27T20:48:19.828Z,99.90
2019-02-27T20:50:55.336Z,99.90
2019-02-27T20:53:25.555Z,99.90
2019-02-27T20:55:55.510Z,99.90
2019-02-27T20:58:25.580Z,99.90
2019-02-27T21:00:55.886Z,99.90
2019-02-27T21:03:27.359Z,99.90
2019-02-27T21:05:57.594Z,99.90
2019-02-27T21:08:27.493Z,99.90
2019-02-27T21:10:57.506Z,99.90
2019-02-27T21:13:27.710Z,99.90
2019-02-27T21:15:57.723Z,99.90
2019-02-27T21:18:29.118Z,99.90
2019-02-27T21:20:59.417Z,99.90
2019-02-27T21:23:31.802Z,99.90
2019-02-27T21:26:01.358Z,99.90
2019-02-27T21:28:31.517Z,99.90
2019-02-27T21:31:01.527Z,99.90
2019-02-27T21:33:31.636Z,99.90
2019-02-27T21:36:03.364Z,99.90
2019-02-27T21:38:33.334Z,99.90
2019-02-27T21:41:03.447Z,99.90
2019-02-27T21:43:33.420Z,99.90
2019-02-27T21:46:03.564Z,99.90
2019-02-27T21:48:34.171Z,99.90
2019-02-27T21:51:04.675Z,99.90
2019-02-27T21:53:34.955Z,99.90
2019-02-27T21:56:04.950Z,99.90
2019-02-27T21:58:34.997Z,99.90
2019-02-27T22:01:05.206Z,99.90
2019-02-27T22:03:38.404Z,99.90
2019-02-27T22:06:07.443Z,99.90
2019-02-27T22:08:38.913Z,99.90
2019-02-27T22:11:09.004Z,99.90
2019-02-27T22:13:42.083Z,99.90
2019-02-27T22:16:10.979Z,99.90
2019-02-27T22:18:41.182Z,99.90
2019-02-27T22:21:11.199Z,99.90
2019-02-27T22:23:41.018Z,99.90
2019-02-27T22:26:11.420Z,99.90
2019-02-27T22:28:41.528Z,99.90
2019-02-27T22:31:11.443Z,99.90
2019-02-27T22:33:41.844Z,99.90
2019-02-27T22:36:12.819Z,99.90
2019-02-27T22:38:43.734Z,99.90
2019-02-27T22:41:13.913Z,99.90
2019-02-27T22:43:44.063Z,99.90
2019-02-27T22:46:16.494Z,99.90
2019-02-27T22:48:45.677Z,99.90
2019-02-27T22:51:15.859Z,99.90
2019-02-27T22:53:45.727Z,99.90
2019-02-27T22:56:16.870Z,99.90
2019-02-27T22:58:49.399Z,99.90
2019-02-27T23:01:22.919Z,99.90
2019-02-27T23:03:57.908Z,99.90
2019-02-27T23:06:28.426Z,99.90
2019-02-27T23:08:59.900Z,99.90
2019-02-27T23:11:30.205Z,99.90
2019-02-27T23:14:00.125Z,99.90
2019-02-27T23:16:30.611Z,99.90
2019-02-27T23:19:00.978Z,99.90
2019-02-27T23:21:30.937Z,99.90
2019-02-27T23:24:00.864Z,99.90
2019-02-27T23:26:31.064Z,99.90
2019-02-27T23:29:01.072Z,99.90
2019-02-27T23:31:31.006Z,99.90
2019-02-27T23:34:01.001Z,99.90
2019-02-27T23:36:31.008Z,99.90
2019-02-27T23:39:00.927Z,99.90
2019-02-27T23:41:30.934Z,99.90
2019-02-27T23:44:00.947Z,99.90
2019-02-27T23:46:30.860Z,99.90
2019-02-27T23:49:00.871Z,99.90
2019-02-27T23:51:31.178Z,99.90
2019-02-27T23:54:02.013Z,99.90
2019-02-27T23:56:32.085Z,99.90
2019-02-27T23:59:02.571Z,99.90
